Skip to Main Content

If you see just a black screen when trying to view Live Traffic cameras, please click inside the window to get video to play. An update to certain browsers is not allowing the video to auto-play when the window opens. 

SEARCH:
Location Air RH Dwp Precip Type Wind Speed Wind Gust Direction Pavement Temperature Date/Time
Hatem Bridge US 40 E/B 73 88 70 None Calm Calm SE 75 - 75 6/18/2018 7:39:00 AM
I-270 at I-370 75 79 69 None Calm Calm N 80 - 84 6/18/2018 7:40:00 AM
I-270 at MD-109 74 97 73 None Calm Calm N 81 - 81 6/18/2018 7:40:00 AM
I-495 at American Legion Bridge 72 100 72 None Calm 7 mph NW 80 - 81 6/18/2018 7:40:00 AM
I-68 at Savage Mt 71 92 69 None Calm 6 mph W 73 - 74 6/18/2018 7:40:00 AM
I-68 at Sideling Hill 74 92 72 None Calm 9 mph S 79 - 80 6/18/2018 7:40:00 AM
I-68 at US 219 71 87 67 None 4 mph 7 mph SW 75 - 76 6/18/2018 7:40:00 AM
I-68 at WV Line 73 81 67 None Calm 5 mph W 75 - 76 6/18/2018 7:35:00 AM
I-695 at I-83 75 82 69 None Calm 10 mph W 80 - 81 6/18/2018 7:40:00 AM
I-695 on FSK Bridge 74 89 71 None Calm Calm NW 82 - 82 6/18/2018 7:42:00 AM
I-70 at Fred-Wash Co. - - - No Data Available - - No Data Available -
I-70 at I-695 75 83 69 None Calm 4 mph SW 78 - 84 6/18/2018 7:40:00 AM
I-70 at I-81 73 100 73 None Calm 5 mph SW - 6/18/2018 7:40:00 AM
I-70 at MD-27 76 89 73 None Calm 5 mph SW 83 - 83 6/18/2018 7:40:00 AM
I-70 at MD-32 69 94 68 None Calm Calm N 76 - 79 6/18/2018 7:40:00 AM
I-83 at MD-137 73 92 70 None Calm 5 mph S 80 - 80 6/18/2018 7:40:00 AM
I-95 at I-695 NE 76 79 69 None Calm Calm N 81 - 85 6/18/2018 7:42:00 AM
I-95 at Patuxent River 74 90 71 None 4 mph 8 mph NE 82 - 83 6/18/2018 7:40:00 AM
I-95 at Tydings Bridge 74 84 69 None Calm 6 mph E 81 - 81 6/18/2018 7:40:00 AM
I-95/495 at I-295 82 69 71 None Calm Calm SW 82 - 84 6/18/2018 7:40:00 AM
I-97 at MD-100 76 80 70 None Calm 6 mph W 81 - 82 6/18/2018 7:40:00 AM
I-97 at MD-32 75 85 70 None Calm Calm S 78 - 79 6/18/2018 7:40:00 AM
IS 70 W of I-270 - - - No Data Available - - No Data Available 82 - 82 6/18/2018 7:40:00 AM
MD 136 @ MD 646 72 89 69 No Data Available Calm Calm S 82 - 82 6/18/2018 7:40:00 AM
MD 20 at MD 21 73 89 70 None Calm Calm N 80 - 80 6/18/2018 7:40:00 AM
MD 23 at Meadowtree Road 72 86 67 No Data Available Calm Calm S 77 - 77 6/18/2018 7:40:00 AM
MD 231 at Patuxent River 74 93 72 None Calm 4 mph NE 80 - 83 6/18/2018 7:40:00 AM
MD 24 at Jarrettsville Road 73 88 70 No Data Available Calm 4 mph S 79 - 79 6/18/2018 7:40:00 AM
MD 260 at Cox Rd 75 92 72 None Calm Calm SW 83 - 83 6/18/2018 7:40:00 AM
MD-135 at Salt Dome 68 100 68 None 4 mph 8 mph W 74 - 74 6/18/2018 7:40:00 AM
MD-140 at MD-97 75 86 70 None Calm 8 mph SW 80 - 81 6/18/2018 7:40:00 AM
MD-200 EB at Bonifant Rd - - - No Data Available - - No Data Available -
MD-200 WB at Muncaster Mill Rd 72 85 67 None Calm 6 mph E 77 - 79 6/18/2018 7:43:00 AM
MD-213 at Sassafras River 73 94 72 None Calm 4 mph S 78 - 78 6/18/2018 7:40:00 AM
MD-24 at Rock St Park 67 100 67 None Calm Calm N 71 - 71 6/18/2018 7:40:00 AM
MD-30 at PA Line 74 87 70 None 4 mph 8 mph SW 81 - 81 6/18/2018 7:40:00 AM
MD-33 at Knapps Narrows Drawbridge 75 91 72 None Calm 5 mph SE 83 - 83 6/18/2018 7:35:00 AM
MD-344 at MD-224 70 95 69 None Calm Calm N 81 - 81 6/18/2018 7:40:00 AM
MD-4 at Patuxent River 76 98 76 None Calm Calm SE 81 - 83 6/18/2018 7:42:00 AM
MD-404 at Choptank River 72 88 68 None Calm Calm N 80 - 81 6/18/2018 7:35:00 AM
MD-43 at MD-150 - - - No Data Available - - No Data Available -
MD-51 at Oldtown Salt Dome 67 100 67 None Calm Calm SW 78 - 78 6/18/2018 7:35:00 AM
MD-64 at MD-418 73 85 69 None Calm Calm N 83 - 83 6/18/2018 7:40:00 AM
US 301 at MD 305 73 88 69 None Calm 5 mph SE 80 - 83 6/18/2018 7:40:00 AM
US-1 at Baltimore / Harford Co. Line 67 95 66 None Calm 7 mph E 73 - 73 6/18/2018 7:40:00 AM
US-1 at Conowingo Dam 71 97 71 None Calm Calm N 76 - 76 6/18/2018 7:40:00 AM
US-13 at US-113 71 100 71 None Calm 4 mph E 84 - 86 6/18/2018 7:40:00 AM
US-13 at US-50 69 97 68 None Calm 6 mph E 85 - 85 6/18/2018 7:40:00 AM
US-15 at MD-140 69 96 68 None Calm Calm SE 78 - 78 6/18/2018 7:40:00 AM
US-301 at MD-5 75 93 73 None Calm 4 mph SE 80 - 80 6/18/2018 7:40:00 AM
US-301 at Potomac 82 78 75 None Calm Calm N 77 - 79 6/18/2018 7:42:00 AM
US-340 at MD-180 71 87 67 None Calm Calm E 77 - 82 6/18/2018 7:40:00 AM
US-50 at Choptank 71 100 71 None Calm 4 mph NE 78 - 79 6/18/2018 7:40:00 AM
US-50 at I-95 77 86 72 None Calm Calm N 83 - 86 6/18/2018 7:40:00 AM
US-50 at MD-2 75 97 74 None 4 mph 6 mph S 81 - 83 6/18/2018 7:40:00 AM
US-50 at MD-331 73 90 70 None Calm Calm SW 80 - 80 6/18/2018 7:40:00 AM
US-50 at OC Drawbridge 70 100 70 None Calm 5 mph SE 80 - 80 6/18/2018 7:40:00 AM
US-50 at Table Rock Rd 68 100 68 None Calm 9 mph W 72 - 72 6/18/2018 7:40:00 AM
US-50 Kent Narrow Bridge 76 96 75 None Calm 4 mph SE 81 - 82 6/18/2018 7:40:00 AM
WPL Pier 31 73 100 73 None 4 mph 7 mph SE 79 - 79 6/18/2018 7:43:00 AM
Location Air RH Dwp Precip Type Wind Speed Wind Gust Direction Pavement Temperature Date/Time